sensor_id;sensor_type;location;lat;lon;timestamp;P1;durP1;ratioP1;P2;durP2;ratioP2
68947;SDS011;55996;49.546;7.400;2024-03-06T00:02:05;8.47;;;5.10;;
68947;SDS011;55996;49.546;7.400;2024-03-06T00:04:30;7.17;;;5.07;;
68947;SDS011;55996;49.546;7.400;2024-03-06T00:06:56;6.50;;;4.93;;
68947;SDS011;55996;49.546;7.400;2024-03-06T00:09:23;7.43;;;5.33;;
68947;SDS011;55996;49.546;7.400;2024-03-06T00:11:48;6.70;;;5.37;;
68947;SDS011;55996;49.546;7.400;2024-03-06T00:14:16;9.27;;;5.73;;
68947;SDS011;55996;49.546;7.400;2024-03-06T00:16:42;5.97;;;5.33;;
68947;SDS011;55996;49.546;7.400;2024-03-06T00:19:08;9.97;;;5.70;;
68947;SDS011;55996;49.546;7.400;2024-03-06T00:21:33;7.40;;;5.30;;
68947;SDS011;55996;49.546;7.400;2024-03-06T00:24:01;7.80;;;6.20;;
68947;SDS011;55996;49.546;7.400;2024-03-06T00:26:26;6.93;;;5.43;;
68947;SDS011;55996;49.546;7.400;2024-03-06T00:28:52;8.57;;;6.27;;
68947;SDS011;55996;49.546;7.400;2024-03-06T00:31:17;7.70;;;6.10;;
68947;SDS011;55996;49.546;7.400;2024-03-06T00:33:43;7.43;;;5.90;;
68947;SDS011;55996;49.546;7.400;2024-03-06T00:36:08;7.40;;;6.17;;
68947;SDS011;55996;49.546;7.400;2024-03-06T00:38:34;6.47;;;5.77;;
68947;SDS011;55996;49.546;7.400;2024-03-06T00:40:59;8.43;;;5.60;;
68947;SDS011;55996;49.546;7.400;2024-03-06T00:43:24;8.37;;;6.50;;
68947;SDS011;55996;49.546;7.400;2024-03-06T00:45:50;6.27;;;5.43;;
68947;SDS011;55996;49.546;7.400;2024-03-06T00:48:15;7.73;;;5.60;;
68947;SDS011;55996;49.546;7.400;2024-03-06T00:50:41;8.37;;;5.50;;
68947;SDS011;55996;49.546;7.400;2024-03-06T00:53:06;6.50;;;5.17;;
68947;SDS011;55996;49.546;7.400;2024-03-06T00:55:31;8.17;;;5.47;;
68947;SDS011;55996;49.546;7.400;2024-03-06T00:57:57;8.20;;;5.47;;
68947;SDS011;55996;49.546;7.400;2024-03-06T01:00:22;8.93;;;6.20;;
68947;SDS011;55996;49.546;7.400;2024-03-06T01:02:48;10.17;;;5.90;;
68947;SDS011;55996;49.546;7.400;2024-03-06T01:05:13;8.00;;;5.30;;
68947;SDS011;55996;49.546;7.400;2024-03-06T01:07:39;7.57;;;5.53;;
68947;SDS011;55996;49.546;7.400;2024-03-06T01:10:05;8.77;;;5.73;;
68947;SDS011;55996;49.546;7.400;2024-03-06T01:12:34;8.37;;;5.67;;
68947;SDS011;55996;49.546;7.400;2024-03-06T01:15:00;6.67;;;5.67;;
68947;SDS011;55996;49.546;7.400;2024-03-06T01:17:25;6.50;;;5.67;;
68947;SDS011;55996;49.546;7.400;2024-03-06T01:19:51;7.13;;;5.83;;
68947;SDS011;55996;49.546;7.400;2024-03-06T01:22:24;6.10;;;5.50;;
68947;SDS011;55996;49.546;7.400;2024-03-06T01:24:49;7.40;;;5.87;;
68947;SDS011;55996;49.546;7.400;2024-03-06T01:27:16;6.03;;;5.13;;
68947;SDS011;55996;49.546;7.400;2024-03-06T01:29:41;8.90;;;6.13;;
68947;SDS011;55996;49.546;7.400;2024-03-06T01:32:07;8.50;;;6.13;;
68947;SDS011;55996;49.546;7.400;2024-03-06T01:34:32;6.33;;;5.50;;
68947;SDS011;55996;49.546;7.400;2024-03-06T01:36:58;6.87;;;5.90;;
68947;SDS011;55996;49.546;7.400;2024-03-06T01:39:23;7.03;;;6.23;;
68947;SDS011;55996;49.546;7.400;2024-03-06T01:41:49;8.43;;;6.00;;
68947;SDS011;55996;49.546;7.400;2024-03-06T01:44:16;6.13;;;5.53;;
68947;SDS011;55996;49.546;7.400;2024-03-06T01:46:42;7.07;;;6.10;;
68947;SDS011;55996;49.546;7.400;2024-03-06T01:49:09;7.57;;;6.50;;
68947;SDS011;55996;49.546;7.400;2024-03-06T01:51:36;9.53;;;6.37;;
68947;SDS011;55996;49.546;7.400;2024-03-06T01:54:01;9.90;;;6.20;;
68947;SDS011;55996;49.546;7.400;2024-03-06T01:56:29;8.00;;;6.20;;
68947;SDS011;55996;49.546;7.400;2024-03-06T01:58:57;9.17;;;6.30;;
68947;SDS011;55996;49.546;7.400;2024-03-06T02:01:24;7.53;;;5.70;;
68947;SDS011;55996;49.546;7.400;2024-03-06T02:03:49;6.97;;;5.53;;
68947;SDS011;55996;49.546;7.400;2024-03-06T02:06:17;8.70;;;6.37;;
68947;SDS011;55996;49.546;7.400;2024-03-06T02:08:44;7.83;;;5.80;;
68947;SDS011;55996;49.546;7.400;2024-03-06T02:11:12;7.10;;;6.07;;
68947;SDS011;55996;49.546;7.400;2024-03-06T02:13:39;7.47;;;5.57;;
68947;SDS011;55996;49.546;7.400;2024-03-06T02:16:04;6.60;;;5.10;;
68947;SDS011;55996;49.546;7.400;2024-03-06T02:18:30;8.03;;;6.10;;
68947;SDS011;55996;49.546;7.400;2024-03-06T02:23:39;6.17;;;5.37;;
68947;SDS011;55996;49.546;7.400;2024-03-06T02:26:05;8.60;;;5.70;;
68947;SDS011;55996;49.546;7.400;2024-03-06T02:28:32;5.90;;;5.30;;
68947;SDS011;55996;49.546;7.400;2024-03-06T02:30:59;6.23;;;5.30;;
68947;SDS011;55996;49.546;7.400;2024-03-06T02:33:25;6.97;;;5.33;;
68947;SDS011;55996;49.546;7.400;2024-03-06T02:35:50;5.97;;;5.23;;
68947;SDS011;55996;49.546;7.400;2024-03-06T02:38:15;5.87;;;5.27;;
68947;SDS011;55996;49.546;7.400;2024-03-06T02:40:42;7.30;;;5.30;;
68947;SDS011;55996;49.546;7.400;2024-03-06T02:43:09;5.90;;;4.67;;
68947;SDS011;55996;49.546;7.400;2024-03-06T02:45:34;7.53;;;5.30;;
68947;SDS011;55996;49.546;7.400;2024-03-06T02:48:00;7.07;;;5.10;;
68947;SDS011;55996;49.546;7.400;2024-03-06T02:50:25;6.13;;;4.90;;
68947;SDS011;55996;49.546;7.400;2024-03-06T02:52:50;5.83;;;5.03;;
68947;SDS011;55996;49.546;7.400;2024-03-06T02:55:18;6.50;;;5.43;;
68947;SDS011;55996;49.546;7.400;2024-03-06T02:57:43;7.90;;;5.87;;
68947;SDS011;55996;49.546;7.400;2024-03-06T03:00:09;8.50;;;5.63;;
68947;SDS011;55996;49.546;7.400;2024-03-06T03:02:38;7.23;;;6.13;;
68947;SDS011;55996;49.546;7.400;2024-03-06T03:05:04;9.07;;;6.07;;
68947;SDS011;55996;49.546;7.400;2024-03-06T03:07:31;6.87;;;5.40;;
68947;SDS011;55996;49.546;7.400;2024-03-06T03:09:57;7.63;;;5.63;;
68947;SDS011;55996;49.546;7.400;2024-03-06T03:12:22;6.50;;;5.50;;
68947;SDS011;55996;49.546;7.400;2024-03-06T03:14:47;7.43;;;5.43;;
68947;SDS011;55996;49.546;7.400;2024-03-06T03:17:13;6.20;;;5.33;;
68947;SDS011;55996;49.546;7.400;2024-03-06T03:19:40;8.10;;;5.47;;
68947;SDS011;55996;49.546;7.400;2024-03-06T03:22:05;6.23;;;5.13;;
68947;SDS011;55996;49.546;7.400;2024-03-06T03:24:31;5.43;;;4.83;;
68947;SDS011;55996;49.546;7.400;2024-03-06T03:26:56;6.93;;;5.63;;
68947;SDS011;55996;49.546;7.400;2024-03-06T03:29:22;8.00;;;5.50;;
68947;SDS011;55996;49.546;7.400;2024-03-06T03:31:47;7.17;;;5.80;;
68947;SDS011;55996;49.546;7.400;2024-03-06T03:34:13;7.73;;;5.83;;
68947;SDS011;55996;49.546;7.400;2024-03-06T03:36:39;8.10;;;5.53;;
68947;SDS011;55996;49.546;7.400;2024-03-06T03:39:10;7.27;;;5.77;;
68947;SDS011;55996;49.546;7.400;2024-03-06T03:41:43;7.03;;;5.50;;
68947;SDS011;55996;49.546;7.400;2024-03-06T03:44:13;6.97;;;5.67;;
68947;SDS011;55996;49.546;7.400;2024-03-06T03:46:38;6.10;;;5.50;;
68947;SDS011;55996;49.546;7.400;2024-03-06T03:49:04;8.10;;;5.80;;
68947;SDS011;55996;49.546;7.400;2024-03-06T03:51:29;8.50;;;5.87;;
68947;SDS011;55996;49.546;7.400;2024-03-06T03:53:54;6.17;;;4.90;;
68947;SDS011;55996;49.546;7.400;2024-03-06T03:56:20;8.80;;;5.97;;
68947;SDS011;55996;49.546;7.400;2024-03-06T03:58:45;6.87;;;5.60;;
68947;SDS011;55996;49.546;7.400;2024-03-06T04:01:11;8.40;;;5.70;;
68947;SDS011;55996;49.546;7.400;2024-03-06T04:03:37;7.80;;;5.90;;
68947;SDS011;55996;49.546;7.400;2024-03-06T04:06:03;6.70;;;4.87;;
68947;SDS011;55996;49.546;7.400;2024-03-06T04:08:29;9.00;;;5.77;;
68947;SDS011;55996;49.546;7.400;2024-03-06T04:10:54;7.20;;;5.67;;
68947;SDS011;55996;49.546;7.400;2024-03-06T04:13:19;6.50;;;5.53;;
68947;SDS011;55996;49.546;7.400;2024-03-06T04:15:45;7.87;;;6.33;;
68947;SDS011;55996;49.546;7.400;2024-03-06T04:18:11;8.93;;;5.53;;
68947;SDS011;55996;49.546;7.400;2024-03-06T04:20:37;6.67;;;5.67;;
68947;SDS011;55996;49.546;7.400;2024-03-06T04:23:02;9.40;;;5.33;;
68947;SDS011;55996;49.546;7.400;2024-03-06T04:25:27;7.37;;;5.87;;
68947;SDS011;55996;49.546;7.400;2024-03-06T04:27:53;7.70;;;5.77;;
68947;SDS011;55996;49.546;7.400;2024-03-06T04:30:18;7.30;;;5.33;;
68947;SDS011;55996;49.546;7.400;2024-03-06T04:32:44;8.20;;;5.80;;
68947;SDS011;55996;49.546;7.400;2024-03-06T04:35:09;7.87;;;5.10;;
68947;SDS011;55996;49.546;7.400;2024-03-06T04:37:35;5.87;;;5.10;;
68947;SDS011;55996;49.546;7.400;2024-03-06T04:40:01;7.13;;;5.33;;
68947;SDS011;55996;49.546;7.400;2024-03-06T04:42:27;6.93;;;5.30;;
68947;SDS011;55996;49.546;7.400;2024-03-06T04:44:53;6.73;;;5.00;;
68947;SDS011;55996;49.546;7.400;2024-03-06T04:47:18;6.33;;;4.93;;
68947;SDS011;55996;49.546;7.400;2024-03-06T04:49:44;6.67;;;5.33;;
68947;SDS011;55996;49.546;7.400;2024-03-06T04:52:09;7.83;;;5.10;;
68947;SDS011;55996;49.546;7.400;2024-03-06T04:54:35;6.03;;;5.20;;
68947;SDS011;55996;49.546;7.400;2024-03-06T04:57:00;5.40;;;4.80;;
68947;SDS011;55996;49.546;7.400;2024-03-06T04:59:25;5.47;;;4.70;;
68947;SDS011;55996;49.546;7.400;2024-03-06T05:01:51;6.80;;;5.23;;
68947;SDS011;55996;49.546;7.400;2024-03-06T05:04:17;6.70;;;5.50;;
68947;SDS011;55996;49.546;7.400;2024-03-06T05:06:42;7.87;;;5.10;;
68947;SDS011;55996;49.546;7.400;2024-03-06T05:09:15;6.20;;;5.10;;
68947;SDS011;55996;49.546;7.400;2024-03-06T05:11:41;7.07;;;4.97;;
68947;SDS011;55996;49.546;7.400;2024-03-06T05:14:06;7.30;;;5.20;;
68947;SDS011;55996;49.546;7.400;2024-03-06T05:16:32;6.30;;;5.13;;
68947;SDS011;55996;49.546;7.400;2024-03-06T05:18:57;6.43;;;5.60;;
68947;SDS011;55996;49.546;7.400;2024-03-06T05:21:23;7.43;;;5.60;;
68947;SDS011;55996;49.546;7.400;2024-03-06T05:23:48;6.47;;;4.70;;
68947;SDS011;55996;49.546;7.400;2024-03-06T05:26:14;7.13;;;5.03;;
68947;SDS011;55996;49.546;7.400;2024-03-06T05:28:41;5.33;;;4.80;;
68947;SDS011;55996;49.546;7.400;2024-03-06T05:31:15;5.57;;;4.57;;
68947;SDS011;55996;49.546;7.400;2024-03-06T05:33:42;5.27;;;4.73;;
68947;SDS011;55996;49.546;7.400;2024-03-06T05:36:08;5.87;;;4.83;;
68947;SDS011;55996;49.546;7.400;2024-03-06T05:38:34;6.87;;;5.03;;
68947;SDS011;55996;49.546;7.400;2024-03-06T05:40:59;5.63;;;4.67;;
68947;SDS011;55996;49.546;7.400;2024-03-06T05:43:25;6.67;;;4.93;;
68947;SDS011;55996;49.546;7.400;2024-03-06T05:45:50;9.60;;;5.17;;
68947;SDS011;55996;49.546;7.400;2024-03-06T05:48:15;7.93;;;4.93;;
68947;SDS011;55996;49.546;7.400;2024-03-06T05:50:41;6.90;;;5.53;;
68947;SDS011;55996;49.546;7.400;2024-03-06T05:53:06;6.60;;;5.17;;
68947;SDS011;55996;49.546;7.400;2024-03-06T05:55:31;7.90;;;5.63;;
68947;SDS011;55996;49.546;7.400;2024-03-06T05:57:57;7.60;;;5.63;;
68947;SDS011;55996;49.546;7.400;2024-03-06T06:00:24;7.50;;;5.37;;
68947;SDS011;55996;49.546;7.400;2024-03-06T06:02:50;6.43;;;5.40;;
68947;SDS011;55996;49.546;7.400;2024-03-06T06:05:15;7.77;;;5.60;;
68947;SDS011;55996;49.546;7.400;2024-03-06T06:07:43;7.30;;;5.30;;
68947;SDS011;55996;49.546;7.400;2024-03-06T06:10:08;6.57;;;5.33;;
68947;SDS011;55996;49.546;7.400;2024-03-06T06:12:35;6.30;;;5.13;;
68947;SDS011;55996;49.546;7.400;2024-03-06T06:15:00;6.77;;;5.40;;
68947;SDS011;55996;49.546;7.400;2024-03-06T06:17:25;5.93;;;5.30;;
68947;SDS011;55996;49.546;7.400;2024-03-06T06:19:51;7.47;;;5.57;;
68947;SDS011;55996;49.546;7.400;2024-03-06T06:22:16;7.23;;;5.67;;
68947;SDS011;55996;49.546;7.400;2024-03-06T06:24:41;10.60;;;5.93;;
68947;SDS011;55996;49.546;7.400;2024-03-06T06:27:07;8.23;;;5.83;;
68947;SDS011;55996;49.546;7.400;2024-03-06T06:29:33;6.27;;;5.13;;
68947;SDS011;55996;49.546;7.400;2024-03-06T06:31:58;7.63;;;5.60;;
68947;SDS011;55996;49.546;7.400;2024-03-06T06:34:24;7.43;;;5.43;;
68947;SDS011;55996;49.546;7.400;2024-03-06T06:36:52;7.03;;;5.27;;
68947;SDS011;55996;49.546;7.400;2024-03-06T06:39:18;7.77;;;5.53;;
68947;SDS011;55996;49.546;7.400;2024-03-06T06:41:43;9.13;;;5.40;;
68947;SDS011;55996;49.546;7.400;2024-03-06T06:44:09;6.77;;;5.73;;
68947;SDS011;55996;49.546;7.400;2024-03-06T06:46:34;7.17;;;5.57;;
68947;SDS011;55996;49.546;7.400;2024-03-06T06:48:59;8.60;;;5.93;;
68947;SDS011;55996;49.546;7.400;2024-03-06T06:51:25;8.40;;;6.30;;
68947;SDS011;55996;49.546;7.400;2024-03-06T06:53:50;8.23;;;6.10;;
68947;SDS011;55996;49.546;7.400;2024-03-06T06:56:16;6.10;;;5.40;;
68947;SDS011;55996;49.546;7.400;2024-03-06T06:58:41;8.27;;;5.83;;
68947;SDS011;55996;49.546;7.400;2024-03-06T07:01:08;6.80;;;5.60;;
68947;SDS011;55996;49.546;7.400;2024-03-06T07:03:34;9.20;;;6.40;;
68947;SDS011;55996;49.546;7.400;2024-03-06T07:06:00;8.93;;;6.67;;
68947;SDS011;55996;49.546;7.400;2024-03-06T07:08:28;9.30;;;6.80;;
68947;SDS011;55996;49.546;7.400;2024-03-06T07:10:53;8.13;;;6.83;;
68947;SDS011;55996;49.546;7.400;2024-03-06T07:13:19;9.40;;;7.13;;
68947;SDS011;55996;49.546;7.400;2024-03-06T07:15:45;9.00;;;7.40;;
68947;SDS011;55996;49.546;7.400;2024-03-06T07:18:11;10.07;;;6.77;;
68947;SDS011;55996;49.546;7.400;2024-03-06T07:20:39;9.43;;;6.80;;
68947;SDS011;55996;49.546;7.400;2024-03-06T07:23:04;9.47;;;7.43;;
68947;SDS011;55996;49.546;7.400;2024-03-06T07:25:30;10.00;;;7.53;;
68947;SDS011;55996;49.546;7.400;2024-03-06T07:27:55;9.60;;;6.73;;
68947;SDS011;55996;49.546;7.400;2024-03-06T07:30:20;11.07;;;6.97;;
68947;SDS011;55996;49.546;7.400;2024-03-06T07:32:47;8.87;;;7.40;;
68947;SDS011;55996;49.546;7.400;2024-03-06T07:35:12;12.53;;;7.30;;
68947;SDS011;55996;49.546;7.400;2024-03-06T07:37:38;9.03;;;7.70;;
68947;SDS011;55996;49.546;7.400;2024-03-06T07:40:03;11.00;;;8.00;;
68947;SDS011;55996;49.546;7.400;2024-03-06T07:42:30;8.93;;;7.13;;
68947;SDS011;55996;49.546;7.400;2024-03-06T07:44:55;10.50;;;7.30;;
68947;SDS011;55996;49.546;7.400;2024-03-06T07:47:21;10.93;;;8.03;;
68947;SDS011;55996;49.546;7.400;2024-03-06T07:49:46;8.83;;;7.20;;
68947;SDS011;55996;49.546;7.400;2024-03-06T07:52:11;10.63;;;7.40;;
68947;SDS011;55996;49.546;7.400;2024-03-06T07:54:37;13.00;;;6.90;;
68947;SDS011;55996;49.546;7.400;2024-03-06T07:57:04;13.00;;;8.00;;
68947;SDS011;55996;49.546;7.400;2024-03-06T07:59:30;9.93;;;7.53;;
68947;SDS011;55996;49.546;7.400;2024-03-06T08:01:55;12.17;;;8.50;;
68947;SDS011;55996;49.546;7.400;2024-03-06T08:04:21;13.07;;;8.70;;
68947;SDS011;55996;49.546;7.400;2024-03-06T08:06:48;10.63;;;7.60;;
68947;SDS011;55996;49.546;7.400;2024-03-06T08:09:13;11.23;;;7.93;;
68947;SDS011;55996;49.546;7.400;2024-03-06T08:11:39;10.07;;;7.67;;
68947;SDS011;55996;49.546;7.400;2024-03-06T08:14:05;13.40;;;8.27;;
68947;SDS011;55996;49.546;7.400;2024-03-06T08:16:31;9.40;;;8.33;;
68947;SDS011;55996;49.546;7.400;2024-03-06T08:18:56;14.60;;;9.43;;
68947;SDS011;55996;49.546;7.400;2024-03-06T08:21:24;17.57;;;9.67;;
68947;SDS011;55996;49.546;7.400;2024-03-06T08:23:49;12.20;;;8.97;;
68947;SDS011;55996;49.546;7.400;2024-03-06T08:26:15;11.63;;;9.53;;
68947;SDS011;55996;49.546;7.400;2024-03-06T08:28:41;12.03;;;9.10;;
68947;SDS011;55996;49.546;7.400;2024-03-06T08:31:06;11.47;;;9.17;;
68947;SDS011;55996;49.546;7.400;2024-03-06T08:33:33;14.23;;;9.63;;
68947;SDS011;55996;49.546;7.400;2024-03-06T08:35:58;16.83;;;10.93;;
68947;SDS011;55996;49.546;7.400;2024-03-06T08:38:24;14.83;;;10.63;;
68947;SDS011;55996;49.546;7.400;2024-03-06T08:40:50;11.93;;;10.20;;
68947;SDS011;55996;49.546;7.400;2024-03-06T08:43:15;16.20;;;11.70;;
68947;SDS011;55996;49.546;7.400;2024-03-06T08:45:41;14.97;;;11.37;;
68947;SDS011;55996;49.546;7.400;2024-03-06T08:48:07;14.07;;;12.17;;
68947;SDS011;55996;49.546;7.400;2024-03-06T08:50:34;15.03;;;11.23;;
68947;SDS011;55996;49.546;7.400;2024-03-06T08:52:59;13.80;;;11.37;;
68947;SDS011;55996;49.546;7.400;2024-03-06T08:55:27;13.23;;;11.40;;
68947;SDS011;55996;49.546;7.400;2024-03-06T08:57:53;13.47;;;10.87;;
68947;SDS011;55996;49.546;7.400;2024-03-06T09:00:18;15.20;;;11.27;;
68947;SDS011;55996;49.546;7.400;2024-03-06T09:02:44;12.47;;;10.63;;
68947;SDS011;55996;49.546;7.400;2024-03-06T09:05:10;11.57;;;10.30;;
68947;SDS011;55996;49.546;7.400;2024-03-06T09:07:37;14.23;;;10.77;;
68947;SDS011;55996;49.546;7.400;2024-03-06T09:10:06;15.20;;;10.77;;
68947;SDS011;55996;49.546;7.400;2024-03-06T09:12:35;15.63;;;11.33;;
68947;SDS011;55996;49.546;7.400;2024-03-06T09:15:01;14.37;;;11.93;;
68947;SDS011;55996;49.546;7.400;2024-03-06T09:17:28;12.60;;;11.20;;
68947;SDS011;55996;49.546;7.400;2024-03-06T09:19:53;17.20;;;11.23;;
68947;SDS011;55996;49.546;7.400;2024-03-06T09:22:19;18.70;;;11.17;;
68947;SDS011;55996;49.546;7.400;2024-03-06T09:24:45;14.10;;;10.53;;
68947;SDS011;55996;49.546;7.400;2024-03-06T09:27:10;16.53;;;11.70;;
68947;SDS011;55996;49.546;7.400;2024-03-06T09:29:35;13.27;;;10.83;;
68947;SDS011;55996;49.546;7.400;2024-03-06T09:32:01;15.73;;;12.20;;
68947;SDS011;55996;49.546;7.400;2024-03-06T09:34:26;11.23;;;9.30;;
68947;SDS011;55996;49.546;7.400;2024-03-06T09:36:51;12.30;;;9.90;;
68947;SDS011;55996;49.546;7.400;2024-03-06T09:39:18;12.97;;;9.83;;
68947;SDS011;55996;49.546;7.400;2024-03-06T09:41:54;11.70;;;8.90;;
68947;SDS011;55996;49.546;7.400;2024-03-06T09:44:21;11.03;;;9.87;;
68947;SDS011;55996;49.546;7.400;2024-03-06T09:46:47;12.77;;;10.40;;
68947;SDS011;55996;49.546;7.400;2024-03-06T09:49:14;13.30;;;11.17;;
68947;SDS011;55996;49.546;7.400;2024-03-06T09:51:45;12.23;;;10.63;;
68947;SDS011;55996;49.546;7.400;2024-03-06T09:54:17;15.37;;;11.40;;
68947;SDS011;55996;49.546;7.400;2024-03-06T09:56:44;13.23;;;11.47;;
68947;SDS011;55996;49.546;7.400;2024-03-06T09:59:11;12.20;;;10.90;;
68947;SDS011;55996;49.546;7.400;2024-03-06T10:01:46;12.27;;;10.33;;
68947;SDS011;55996;49.546;7.400;2024-03-06T10:04:18;12.17;;;10.40;;
68947;SDS011;55996;49.546;7.400;2024-03-06T10:06:47;11.70;;;10.27;;
68947;SDS011;55996;49.546;7.400;2024-03-06T10:09:16;13.10;;;9.53;;
68947;SDS011;55996;49.546;7.400;2024-03-06T10:11:42;12.67;;;9.80;;
68947;SDS011;55996;49.546;7.400;2024-03-06T10:14:08;12.47;;;9.27;;
68947;SDS011;55996;49.546;7.400;2024-03-06T10:16:35;12.53;;;9.50;;
68947;SDS011;55996;49.546;7.400;2024-03-06T10:19:17;13.80;;;9.97;;
68947;SDS011;55996;49.546;7.400;2024-03-06T10:21:43;10.77;;;8.87;;
68947;SDS011;55996;49.546;7.400;2024-03-06T10:24:11;17.47;;;10.40;;
68947;SDS011;55996;49.546;7.400;2024-03-06T10:26:37;9.70;;;7.00;;
68947;SDS011;55996;49.546;7.400;2024-03-06T10:29:03;5.40;;;4.23;;
68947;SDS011;55996;49.546;7.400;2024-03-06T10:31:28;6.37;;;4.87;;
68947;SDS011;55996;49.546;7.400;2024-03-06T10:33:54;1.70;;;1.50;;
68947;SDS011;55996;49.546;7.400;2024-03-06T10:36:19;1.77;;;1.30;;
68947;SDS011;55996;49.546;7.400;2024-03-06T10:38:44;3.73;;;2.50;;
68947;SDS011;55996;49.546;7.400;2024-03-06T10:41:15;4.20;;;2.80;;
68947;SDS011;55996;49.546;7.400;2024-03-06T10:43:49;5.47;;;2.67;;
68947;SDS011;55996;49.546;7.400;2024-03-06T10:46:19;3.17;;;2.80;;
68947;SDS011;55996;49.546;7.400;2024-03-06T10:48:45;4.37;;;3.20;;
68947;SDS011;55996;49.546;7.400;2024-03-06T10:51:14;5.33;;;2.90;;
68947;SDS011;55996;49.546;7.400;2024-03-06T10:53:40;6.97;;;3.13;;
68947;SDS011;55996;49.546;7.400;2024-03-06T10:56:08;3.57;;;2.40;;
68947;SDS011;55996;49.546;7.400;2024-03-06T10:58:34;3.27;;;2.90;;
68947;SDS011;55996;49.546;7.400;2024-03-06T11:01:00;3.90;;;2.70;;
68947;SDS011;55996;49.546;7.400;2024-03-06T11:03:27;3.57;;;3.13;;
68947;SDS011;55996;49.546;7.400;2024-03-06T11:05:54;6.53;;;3.00;;
68947;SDS011;55996;49.546;7.400;2024-03-06T11:08:19;5.27;;;2.83;;
68947;SDS011;55996;49.546;7.400;2024-03-06T11:10:46;2.83;;;2.53;;
68947;SDS011;55996;49.546;7.400;2024-03-06T11:15:42;3.90;;;2.70;;
68947;SDS011;55996;49.546;7.400;2024-03-06T11:19:04;2.90;;;2.60;;
68947;SDS011;55996;49.546;7.400;2024-03-06T11:23:31;6.40;;;2.87;;
68947;SDS011;55996;49.546;7.400;2024-03-06T11:26:03;4.53;;;2.70;;
68947;SDS011;55996;49.546;7.400;2024-03-06T11:28:30;3.27;;;2.40;;
68947;SDS011;55996;49.546;7.400;2024-03-06T11:31:15;2.60;;;2.17;;
68947;SDS011;55996;49.546;7.400;2024-03-06T11:36:17;3.30;;;2.30;;
68947;SDS011;55996;49.546;7.400;2024-03-06T11:44:17;2.60;;;2.30;;
68947;SDS011;55996;49.546;7.400;2024-03-06T11:51:49;2.33;;;1.90;;
68947;SDS011;55996;49.546;7.400;2024-03-06T11:54:15;2.67;;;2.10;;
68947;SDS011;55996;49.546;7.400;2024-03-06T11:56:42;3.00;;;2.20;;
68947;SDS011;55996;49.546;7.400;2024-03-06T11:59:10;2.20;;;2.00;;
68947;SDS011;55996;49.546;7.400;2024-03-06T12:01:36;3.37;;;2.70;;
68947;SDS011;55996;49.546;7.400;2024-03-06T12:04:02;6.37;;;4.00;;
68947;SDS011;55996;49.546;7.400;2024-03-06T12:06:34;3.37;;;2.80;;
68947;SDS011;55996;49.546;7.400;2024-03-06T12:09:00;5.30;;;3.10;;
68947;SDS011;55996;49.546;7.400;2024-03-06T12:11:26;3.53;;;2.20;;
68947;SDS011;55996;49.546;7.400;2024-03-06T12:13:53;3.37;;;2.07;;
68947;SDS011;55996;49.546;7.400;2024-03-06T12:16:19;3.27;;;2.00;;
68947;SDS011;55996;49.546;7.400;2024-03-06T12:18:44;2.93;;;1.90;;
68947;SDS011;55996;49.546;7.400;2024-03-06T12:21:11;1.60;;;1.50;;
68947;SDS011;55996;49.546;7.400;2024-03-06T12:23:36;2.57;;;1.53;;
68947;SDS011;55996;49.546;7.400;2024-03-06T12:26:02;3.10;;;1.60;;
68947;SDS011;55996;49.546;7.400;2024-03-06T12:28:29;3.40;;;1.60;;
68947;SDS011;55996;49.546;7.400;2024-03-06T12:30:55;3.43;;;1.67;;
68947;SDS011;55996;49.546;7.400;2024-03-06T12:33:20;2.63;;;1.53;;
68947;SDS011;55996;49.546;7.400;2024-03-06T12:35:46;3.83;;;1.70;;
68947;SDS011;55996;49.546;7.400;2024-03-06T12:38:13;2.70;;;1.80;;
68947;SDS011;55996;49.546;7.400;2024-03-06T12:40:40;4.07;;;1.57;;
68947;SDS011;55996;49.546;7.400;2024-03-06T12:43:06;4.17;;;1.90;;
68947;SDS011;55996;49.546;7.400;2024-03-06T12:45:32;7.47;;;1.90;;
68947;SDS011;55996;49.546;7.400;2024-03-06T12:47:57;2.93;;;1.80;;
68947;SDS011;55996;49.546;7.400;2024-03-06T12:50:23;3.83;;;1.40;;
68947;SDS011;55996;49.546;7.400;2024-03-06T12:52:48;3.30;;;1.60;;
68947;SDS011;55996;49.546;7.400;2024-03-06T12:55:14;3.33;;;1.67;;
68947;SDS011;55996;49.546;7.400;2024-03-06T12:57:39;4.03;;;2.00;;
68947;SDS011;55996;49.546;7.400;2024-03-06T13:00:05;3.23;;;1.50;;
68947;SDS011;55996;49.546;7.400;2024-03-06T13:02:40;3.67;;;1.73;;
68947;SDS011;55996;49.546;7.400;2024-03-06T13:05:09;2.10;;;1.33;;
68947;SDS011;55996;49.546;7.400;2024-03-06T13:07:34;2.10;;;1.30;;
68947;SDS011;55996;49.546;7.400;2024-03-06T13:10:01;2.30;;;1.50;;
68947;SDS011;55996;49.546;7.400;2024-03-06T13:12:27;3.53;;;1.40;;
68947;SDS011;55996;49.546;7.400;2024-03-06T13:14:52;4.30;;;1.60;;
68947;SDS011;55996;49.546;7.400;2024-03-06T13:17:18;2.93;;;1.50;;
68947;SDS011;55996;49.546;7.400;2024-03-06T13:19:44;3.63;;;1.30;;
68947;SDS011;55996;49.546;7.400;2024-03-06T13:22:09;2.07;;;1.23;;
68947;SDS011;55996;49.546;7.400;2024-03-06T13:24:35;2.67;;;1.20;;
68947;SDS011;55996;49.546;7.400;2024-03-06T13:27:01;1.30;;;1.20;;
68947;SDS011;55996;49.546;7.400;2024-03-06T13:29:26;3.40;;;1.27;;
68947;SDS011;55996;49.546;7.400;2024-03-06T13:31:52;1.93;;;1.20;;
68947;SDS011;55996;49.546;7.400;2024-03-06T13:34:17;2.30;;;1.33;;
68947;SDS011;55996;49.546;7.400;2024-03-06T13:36:43;1.60;;;1.30;;
68947;SDS011;55996;49.546;7.400;2024-03-06T13:39:09;3.70;;;1.73;;
68947;SDS011;55996;49.546;7.400;2024-03-06T13:41:34;2.03;;;1.30;;
68947;SDS011;55996;49.546;7.400;2024-03-06T13:44:00;1.90;;;1.20;;
68947;SDS011;55996;49.546;7.400;2024-03-06T13:46:25;2.17;;;1.30;;
68947;SDS011;55996;49.546;7.400;2024-03-06T13:48:50;2.43;;;1.30;;
68947;SDS011;55996;49.546;7.400;2024-03-06T13:51:16;1.57;;;1.23;;
68947;SDS011;55996;49.546;7.400;2024-03-06T13:53:41;2.63;;;1.63;;
68947;SDS011;55996;49.546;7.400;2024-03-06T13:56:07;3.13;;;1.40;;
68947;SDS011;55996;49.546;7.400;2024-03-06T13:58:33;2.43;;;1.17;;
68947;SDS011;55996;49.546;7.400;2024-03-06T14:00:59;2.63;;;1.43;;
68947;SDS011;55996;49.546;7.400;2024-03-06T14:03:24;2.07;;;1.23;;
68947;SDS011;55996;49.546;7.400;2024-03-06T14:05:50;2.80;;;1.17;;
68947;SDS011;55996;49.546;7.400;2024-03-06T14:08:16;2.90;;;1.30;;
68947;SDS011;55996;49.546;7.400;2024-03-06T14:10:42;2.90;;;1.30;;
68947;SDS011;55996;49.546;7.400;2024-03-06T14:13:07;2.40;;;1.20;;
68947;SDS011;55996;49.546;7.400;2024-03-06T14:15:33;1.90;;;1.37;;
68947;SDS011;55996;49.546;7.400;2024-03-06T14:17:59;3.73;;;1.50;;
68947;SDS011;55996;49.546;7.400;2024-03-06T14:20:27;4.00;;;1.63;;
68947;SDS011;55996;49.546;7.400;2024-03-06T14:22:52;2.93;;;1.20;;
68947;SDS011;55996;49.546;7.400;2024-03-06T14:25:18;3.63;;;1.30;;
68947;SDS011;55996;49.546;7.400;2024-03-06T14:27:43;2.37;;;1.20;;
68947;SDS011;55996;49.546;7.400;2024-03-06T14:30:09;1.80;;;1.53;;
68947;SDS011;55996;49.546;7.400;2024-03-06T14:32:38;1.53;;;1.43;;
68947;SDS011;55996;49.546;7.400;2024-03-06T14:35:04;1.87;;;1.20;;
68947;SDS011;55996;49.546;7.400;2024-03-06T14:37:30;1.50;;;1.27;;
68947;SDS011;55996;49.546;7.400;2024-03-06T14:39:55;2.20;;;1.27;;
68947;SDS011;55996;49.546;7.400;2024-03-06T14:42:21;1.17;;;1.03;;
68947;SDS011;55996;49.546;7.400;2024-03-06T14:44:49;2.30;;;1.20;;
68947;SDS011;55996;49.546;7.400;2024-03-06T14:47:14;1.13;;;1.00;;
68947;SDS011;55996;49.546;7.400;2024-03-06T14:49:41;2.17;;;1.30;;
68947;SDS011;55996;49.546;7.400;2024-03-06T14:52:09;1.43;;;1.30;;
68947;SDS011;55996;49.546;7.400;2024-03-06T14:54:34;1.67;;;1.10;;
68947;SDS011;55996;49.546;7.400;2024-03-06T14:57:00;1.40;;;1.20;;
68947;SDS011;55996;49.546;7.400;2024-03-06T14:59:26;2.20;;;1.17;;